sensor_id;sensor_type;location;lat;lon;timestamp;P1;durP1;ratioP1;P2;durP2;ratioP2
73776;SDS011;62088;50.240;2.696;2023-03-14T00:01:45;11.32;;;2.88;;
73776;SDS011;62088;50.240;2.696;2023-03-14T00:04:12;13.80;;;3.03;;
73776;SDS011;62088;50.240;2.696;2023-03-14T00:06:39;13.27;;;2.70;;
73776;SDS011;62088;50.240;2.696;2023-03-14T00:09:06;14.85;;;2.50;;
73776;SDS011;62088;50.240;2.696;2023-03-14T00:11:34;17.77;;;2.97;;
73776;SDS011;62088;50.240;2.696;2023-03-14T00:14:01;18.08;;;4.13;;
73776;SDS011;62088;50.240;2.696;2023-03-14T00:16:29;15.63;;;3.42;;
73776;SDS011;62088;50.240;2.696;2023-03-14T00:18:57;15.40;;;3.10;;
73776;SDS011;62088;50.240;2.696;2023-03-14T00:21:25;17.23;;;3.60;;
73776;SDS011;62088;50.240;2.696;2023-03-14T00:23:52;20.80;;;3.80;;
73776;SDS011;62088;50.240;2.696;2023-03-14T00:26:20;20.00;;;3.40;;
73776;SDS011;62088;50.240;2.696;2023-03-14T00:28:50;16.98;;;3.40;;
73776;SDS011;62088;50.240;2.696;2023-03-14T00:31:18;20.50;;;4.25;;
73776;SDS011;62088;50.240;2.696;2023-03-14T00:33:46;21.08;;;4.28;;
73776;SDS011;62088;50.240;2.696;2023-03-14T00:36:15;22.98;;;4.10;;
73776;SDS011;62088;50.240;2.696;2023-03-14T00:38:44;17.98;;;4.07;;
73776;SDS011;62088;50.240;2.696;2023-03-14T00:41:13;25.90;;;3.90;;
73776;SDS011;62088;50.240;2.696;2023-03-14T00:43:42;18.17;;;4.10;;
73776;SDS011;62088;50.240;2.696;2023-03-14T00:46:10;19.15;;;4.20;;
73776;SDS011;62088;50.240;2.696;2023-03-14T00:48:37;20.77;;;4.20;;
73776;SDS011;62088;50.240;2.696;2023-03-14T00:51:05;19.98;;;3.22;;
73776;SDS011;62088;50.240;2.696;2023-03-14T00:53:37;20.88;;;4.57;;
73776;SDS011;62088;50.240;2.696;2023-03-14T00:56:06;20.35;;;3.58;;
73776;SDS011;62088;50.240;2.696;2023-03-14T00:58:35;24.70;;;4.10;;
73776;SDS011;62088;50.240;2.696;2023-03-14T01:01:07;23.05;;;4.00;;
73776;SDS011;62088;50.240;2.696;2023-03-14T01:03:36;18.67;;;3.87;;
73776;SDS011;62088;50.240;2.696;2023-03-14T01:06:10;17.88;;;3.10;;
73776;SDS011;62088;50.240;2.696;2023-03-14T01:08:43;21.60;;;3.90;;
73776;SDS011;62088;50.240;2.696;2023-03-14T01:11:12;18.63;;;3.47;;
73776;SDS011;62088;50.240;2.696;2023-03-14T01:13:49;17.50;;;3.30;;
73776;SDS011;62088;50.240;2.696;2023-03-14T01:16:17;23.77;;;3.78;;
73776;SDS011;62088;50.240;2.696;2023-03-14T01:18:46;21.20;;;3.65;;
73776;SDS011;62088;50.240;2.696;2023-03-14T01:21:16;11.35;;;2.55;;
73776;SDS011;62088;50.240;2.696;2023-03-14T01:23:49;20.13;;;3.75;;
73776;SDS011;62088;50.240;2.696;2023-03-14T01:26:18;16.75;;;3.28;;
73776;SDS011;62088;50.240;2.696;2023-03-14T01:28:47;12.45;;;2.38;;
73776;SDS011;62088;50.240;2.696;2023-03-14T01:31:16;16.20;;;2.92;;
73776;SDS011;62088;50.240;2.696;2023-03-14T01:33:44;14.20;;;2.85;;
73776;SDS011;62088;50.240;2.696;2023-03-14T01:36:12;17.98;;;3.92;;
73776;SDS011;62088;50.240;2.696;2023-03-14T01:38:41;11.48;;;2.28;;
73776;SDS011;62088;50.240;2.696;2023-03-14T01:41:15;11.20;;;2.65;;
73776;SDS011;62088;50.240;2.696;2023-03-14T01:43:45;12.88;;;2.22;;
73776;SDS011;62088;50.240;2.696;2023-03-14T01:48:57;14.80;;;2.50;;
73776;SDS011;62088;50.240;2.696;2023-03-14T01:51:40;11.18;;;2.13;;
73776;SDS011;62088;50.240;2.696;2023-03-14T01:54:24;9.80;;;1.90;;
73776;SDS011;62088;50.240;2.696;2023-03-14T01:57:01;11.63;;;2.10;;
73776;SDS011;62088;50.240;2.696;2023-03-14T01:59:46;9.82;;;1.92;;
73776;SDS011;62088;50.240;2.696;2023-03-14T02:02:18;9.40;;;1.95;;
73776;SDS011;62088;50.240;2.696;2023-03-14T02:04:46;9.27;;;1.90;;
73776;SDS011;62088;50.240;2.696;2023-03-14T02:07:17;10.80;;;1.90;;
73776;SDS011;62088;50.240;2.696;2023-03-14T02:10:00;8.45;;;1.70;;
73776;SDS011;62088;50.240;2.696;2023-03-14T02:12:32;6.25;;;1.50;;
73776;SDS011;62088;50.240;2.696;2023-03-14T02:15:09;8.65;;;1.70;;
73776;SDS011;62088;50.240;2.696;2023-03-14T02:18:08;6.95;;;1.63;;
73776;SDS011;62088;50.240;2.696;2023-03-14T02:21:16;5.75;;;1.35;;
73776;SDS011;62088;50.240;2.696;2023-03-14T02:23:55;5.45;;;1.30;;
73776;SDS011;62088;50.240;2.696;2023-03-14T02:30:04;5.72;;;1.40;;
73776;SDS011;62088;50.240;2.696;2023-03-14T02:33:03;6.35;;;1.45;;
73776;SDS011;62088;50.240;2.696;2023-03-14T02:35:43;5.55;;;1.52;;
73776;SDS011;62088;50.240;2.696;2023-03-14T02:40:55;5.00;;;1.48;;
73776;SDS011;62088;50.240;2.696;2023-03-14T02:43:22;4.85;;;1.17;;
73776;SDS011;62088;50.240;2.696;2023-03-14T02:45:56;4.10;;;1.40;;
73776;SDS011;62088;50.240;2.696;2023-03-14T02:48:43;6.65;;;1.38;;
73776;SDS011;62088;50.240;2.696;2023-03-14T02:51:11;4.10;;;1.10;;
73776;SDS011;62088;50.240;2.696;2023-03-14T02:53:40;6.35;;;1.20;;
73776;SDS011;62088;50.240;2.696;2023-03-14T02:56:11;4.63;;;1.20;;
73776;SDS011;62088;50.240;2.696;2023-03-14T02:58:38;3.58;;;0.95;;
73776;SDS011;62088;50.240;2.696;2023-03-14T03:01:25;5.07;;;1.17;;
73776;SDS011;62088;50.240;2.696;2023-03-14T03:03:52;5.40;;;1.20;;
73776;SDS011;62088;50.240;2.696;2023-03-14T03:06:19;4.43;;;1.20;;
73776;SDS011;62088;50.240;2.696;2023-03-14T03:08:46;3.92;;;1.13;;
73776;SDS011;62088;50.240;2.696;2023-03-14T03:11:14;4.28;;;1.30;;
73776;SDS011;62088;50.240;2.696;2023-03-14T03:13:41;3.10;;;1.25;;
73776;SDS011;62088;50.240;2.696;2023-03-14T03:16:08;4.13;;;1.20;;
73776;SDS011;62088;50.240;2.696;2023-03-14T03:18:35;6.13;;;1.20;;
73776;SDS011;62088;50.240;2.696;2023-03-14T03:21:03;3.38;;;1.00;;
73776;SDS011;62088;50.240;2.696;2023-03-14T03:23:32;2.60;;;1.10;;
73776;SDS011;62088;50.240;2.696;2023-03-14T03:25:59;2.42;;;1.10;;
73776;SDS011;62088;50.240;2.696;2023-03-14T03:28:26;1.38;;;0.70;;
73776;SDS011;62088;50.240;2.696;2023-03-14T03:30:53;2.67;;;1.00;;
73776;SDS011;62088;50.240;2.696;2023-03-14T03:33:21;2.08;;;0.80;;
73776;SDS011;62088;50.240;2.696;2023-03-14T03:35:50;3.28;;;1.08;;
73776;SDS011;62088;50.240;2.696;2023-03-14T03:38:25;3.22;;;0.90;;
73776;SDS011;62088;50.240;2.696;2023-03-14T03:40:53;2.50;;;0.85;;
73776;SDS011;62088;50.240;2.696;2023-03-14T03:43:23;4.03;;;1.20;;
73776;SDS011;62088;50.240;2.696;2023-03-14T03:45:50;4.20;;;1.10;;
73776;SDS011;62088;50.240;2.696;2023-03-14T03:48:19;3.88;;;0.90;;
73776;SDS011;62088;50.240;2.696;2023-03-14T03:50:46;6.82;;;1.33;;
73776;SDS011;62088;50.240;2.696;2023-03-14T03:53:17;5.18;;;0.82;;
73776;SDS011;62088;50.240;2.696;2023-03-14T03:56:00;4.72;;;1.08;;
73776;SDS011;62088;50.240;2.696;2023-03-14T03:58:28;11.50;;;1.40;;
73776;SDS011;62088;50.240;2.696;2023-03-14T04:00:55;8.02;;;1.35;;
73776;SDS011;62088;50.240;2.696;2023-03-14T04:03:22;10.15;;;1.75;;
73776;SDS011;62088;50.240;2.696;2023-03-14T04:06:00;7.03;;;1.40;;
73776;SDS011;62088;50.240;2.696;2023-03-14T04:08:28;7.63;;;1.40;;
73776;SDS011;62088;50.240;2.696;2023-03-14T04:10:57;7.20;;;1.30;;
73776;SDS011;62088;50.240;2.696;2023-03-14T04:13:52;9.90;;;1.55;;
73776;SDS011;62088;50.240;2.696;2023-03-14T04:16:20;10.18;;;1.63;;
73776;SDS011;62088;50.240;2.696;2023-03-14T04:18:52;7.22;;;1.10;;
73776;SDS011;62088;50.240;2.696;2023-03-14T04:21:21;8.90;;;1.30;;
73776;SDS011;62088;50.240;2.696;2023-03-14T04:23:53;8.27;;;1.52;;
73776;SDS011;62088;50.240;2.696;2023-03-14T04:26:20;8.82;;;1.27;;
73776;SDS011;62088;50.240;2.696;2023-03-14T04:28:47;8.10;;;1.48;;
73776;SDS011;62088;50.240;2.696;2023-03-14T04:31:16;6.93;;;1.40;;
73776;SDS011;62088;50.240;2.696;2023-03-14T04:33:45;9.73;;;1.70;;
73776;SDS011;62088;50.240;2.696;2023-03-14T04:36:16;4.60;;;1.10;;
73776;SDS011;62088;50.240;2.696;2023-03-14T04:38:43;3.90;;;1.05;;
73776;SDS011;62088;50.240;2.696;2023-03-14T04:41:11;5.25;;;0.95;;
73776;SDS011;62088;50.240;2.696;2023-03-14T04:43:38;4.03;;;1.23;;
73776;SDS011;62088;50.240;2.696;2023-03-14T04:46:07;4.25;;;1.10;;
73776;SDS011;62088;50.240;2.696;2023-03-14T04:48:34;3.45;;;1.20;;
73776;SDS011;62088;50.240;2.696;2023-03-14T04:51:02;3.17;;;1.17;;
73776;SDS011;62088;50.240;2.696;2023-03-14T04:53:31;4.07;;;1.00;;
73776;SDS011;62088;50.240;2.696;2023-03-14T04:56:02;3.20;;;1.13;;
73776;SDS011;62088;50.240;2.696;2023-03-14T04:58:35;4.93;;;1.00;;
73776;SDS011;62088;50.240;2.696;2023-03-14T05:01:04;2.30;;;0.82;;
73776;SDS011;62088;50.240;2.696;2023-03-14T05:03:46;2.33;;;0.80;;
73776;SDS011;62088;50.240;2.696;2023-03-14T05:06:13;4.18;;;0.95;;
73776;SDS011;62088;50.240;2.696;2023-03-14T05:08:40;4.10;;;0.88;;
73776;SDS011;62088;50.240;2.696;2023-03-14T05:11:26;3.30;;;0.70;;
73776;SDS011;62088;50.240;2.696;2023-03-14T05:14:11;2.67;;;0.88;;
73776;SDS011;62088;50.240;2.696;2023-03-14T05:16:57;1.75;;;0.82;;
73776;SDS011;62088;50.240;2.696;2023-03-14T05:19:34;4.25;;;1.10;;
73776;SDS011;62088;50.240;2.696;2023-03-14T05:22:10;2.92;;;0.90;;
73776;SDS011;62088;50.240;2.696;2023-03-14T05:24:51;1.85;;;0.68;;
73776;SDS011;62088;50.240;2.696;2023-03-14T05:27:25;3.63;;;0.85;;
73776;SDS011;62088;50.240;2.696;2023-03-14T05:30:13;3.25;;;0.93;;
73776;SDS011;62088;50.240;2.696;2023-03-14T05:33:00;2.88;;;0.80;;
73776;SDS011;62088;50.240;2.696;2023-03-14T05:35:42;3.13;;;0.80;;
73776;SDS011;62088;50.240;2.696;2023-03-14T05:38:47;9.45;;;1.10;;
73776;SDS011;62088;50.240;2.696;2023-03-14T05:41:41;2.85;;;0.98;;
73776;SDS011;62088;50.240;2.696;2023-03-14T05:44:31;2.38;;;0.95;;
73776;SDS011;62088;50.240;2.696;2023-03-14T05:47:27;5.75;;;1.40;;
73776;SDS011;62088;50.240;2.696;2023-03-14T05:50:17;6.80;;;1.60;;
73776;SDS011;62088;50.240;2.696;2023-03-14T05:52:58;3.55;;;1.40;;
73776;SDS011;62088;50.240;2.696;2023-03-14T05:55:51;4.90;;;1.60;;
73776;SDS011;62088;50.240;2.696;2023-03-14T05:58:37;2.88;;;0.98;;
73776;SDS011;62088;50.240;2.696;2023-03-14T06:01:43;3.15;;;1.50;;
73776;SDS011;62088;50.240;2.696;2023-03-14T06:04:17;3.50;;;1.38;;
73776;SDS011;62088;50.240;2.696;2023-03-14T06:06:49;5.00;;;1.63;;
73776;SDS011;62088;50.240;2.696;2023-03-14T06:09:17;5.00;;;1.23;;
73776;SDS011;62088;50.240;2.696;2023-03-14T06:11:46;7.57;;;2.10;;
73776;SDS011;62088;50.240;2.696;2023-03-14T06:14:13;4.82;;;1.33;;
73776;SDS011;62088;50.240;2.696;2023-03-14T06:16:43;6.97;;;1.58;;
73776;SDS011;62088;50.240;2.696;2023-03-14T06:19:11;5.68;;;1.50;;
73776;SDS011;62088;50.240;2.696;2023-03-14T06:21:38;5.03;;;1.52;;
73776;SDS011;62088;50.240;2.696;2023-03-14T06:24:06;9.48;;;1.83;;
73776;SDS011;62088;50.240;2.696;2023-03-14T06:26:39;7.07;;;1.85;;
73776;SDS011;62088;50.240;2.696;2023-03-14T06:29:07;4.57;;;1.33;;
73776;SDS011;62088;50.240;2.696;2023-03-14T06:31:36;6.95;;;1.42;;
73776;SDS011;62088;50.240;2.696;2023-03-14T06:34:05;7.90;;;1.92;;
73776;SDS011;62088;50.240;2.696;2023-03-14T06:36:32;6.88;;;1.23;;
73776;SDS011;62088;50.240;2.696;2023-03-14T06:38:59;5.88;;;1.40;;
73776;SDS011;62088;50.240;2.696;2023-03-14T06:41:29;7.05;;;1.42;;
73776;SDS011;62088;50.240;2.696;2023-03-14T06:43:58;5.43;;;1.23;;
73776;SDS011;62088;50.240;2.696;2023-03-14T06:46:25;5.90;;;1.30;;
73776;SDS011;62088;50.240;2.696;2023-03-14T06:48:53;10.25;;;1.73;;
73776;SDS011;62088;50.240;2.696;2023-03-14T06:51:20;8.88;;;1.58;;
73776;SDS011;62088;50.240;2.696;2023-03-14T06:53:48;3.47;;;1.00;;
73776;SDS011;62088;50.240;2.696;2023-03-14T06:56:18;4.90;;;0.93;;
73776;SDS011;62088;50.240;2.696;2023-03-14T06:58:45;8.75;;;1.80;;
73776;SDS011;62088;50.240;2.696;2023-03-14T07:01:18;7.18;;;1.38;;
73776;SDS011;62088;50.240;2.696;2023-03-14T07:03:52;4.05;;;0.70;;
73776;SDS011;62088;50.240;2.696;2023-03-14T07:06:20;5.20;;;1.27;;
73776;SDS011;62088;50.240;2.696;2023-03-14T07:08:48;3.72;;;0.98;;
73776;SDS011;62088;50.240;2.696;2023-03-14T07:11:16;6.05;;;1.10;;
73776;SDS011;62088;50.240;2.696;2023-03-14T07:13:44;6.30;;;1.38;;
73776;SDS011;62088;50.240;2.696;2023-03-14T07:16:11;8.15;;;1.40;;
73776;SDS011;62088;50.240;2.696;2023-03-14T07:18:38;5.60;;;0.80;;
73776;SDS011;62088;50.240;2.696;2023-03-14T07:21:06;8.02;;;1.48;;
73776;SDS011;62088;50.240;2.696;2023-03-14T07:23:33;6.68;;;1.50;;
73776;SDS011;62088;50.240;2.696;2023-03-14T07:26:01;6.45;;;0.98;;
73776;SDS011;62088;50.240;2.696;2023-03-14T07:28:30;6.80;;;1.20;;
73776;SDS011;62088;50.240;2.696;2023-03-14T07:31:06;9.00;;;1.63;;
73776;SDS011;62088;50.240;2.696;2023-03-14T07:33:33;6.07;;;1.30;;
73776;SDS011;62088;50.240;2.696;2023-03-14T07:36:01;6.97;;;1.48;;
73776;SDS011;62088;50.240;2.696;2023-03-14T07:38:30;10.25;;;1.20;;
73776;SDS011;62088;50.240;2.696;2023-03-14T07:41:29;9.68;;;1.33;;
73776;SDS011;62088;50.240;2.696;2023-03-14T07:44:15;3.53;;;0.88;;
73776;SDS011;62088;50.240;2.696;2023-03-14T07:46:42;5.18;;;1.05;;
73776;SDS011;62088;50.240;2.696;2023-03-14T07:49:09;8.15;;;1.80;;
73776;SDS011;62088;50.240;2.696;2023-03-14T07:51:36;3.42;;;0.95;;
73776;SDS011;62088;50.240;2.696;2023-03-14T07:54:03;8.57;;;1.70;;
73776;SDS011;62088;50.240;2.696;2023-03-14T07:56:30;4.13;;;0.93;;
73776;SDS011;62088;50.240;2.696;2023-03-14T07:58:57;6.07;;;1.10;;
73776;SDS011;62088;50.240;2.696;2023-03-14T08:01:24;6.78;;;1.58;;
73776;SDS011;62088;50.240;2.696;2023-03-14T08:03:51;3.83;;;0.95;;
73776;SDS011;62088;50.240;2.696;2023-03-14T08:06:18;7.57;;;1.42;;
73776;SDS011;62088;50.240;2.696;2023-03-14T08:08:45;5.45;;;1.15;;
73776;SDS011;62088;50.240;2.696;2023-03-14T08:11:12;5.78;;;1.17;;
73776;SDS011;62088;50.240;2.696;2023-03-14T08:13:39;6.20;;;1.25;;
73776;SDS011;62088;50.240;2.696;2023-03-14T08:16:06;9.10;;;1.60;;
73776;SDS011;62088;50.240;2.696;2023-03-14T08:18:34;10.57;;;1.90;;
73776;SDS011;62088;50.240;2.696;2023-03-14T08:21:01;10.60;;;1.77;;
73776;SDS011;62088;50.240;2.696;2023-03-14T08:23:28;8.38;;;1.63;;
73776;SDS011;62088;50.240;2.696;2023-03-14T08:25:55;4.95;;;1.13;;
73776;SDS011;62088;50.240;2.696;2023-03-14T08:28:22;8.38;;;1.80;;
73776;SDS011;62088;50.240;2.696;2023-03-14T08:30:49;8.93;;;1.60;;
73776;SDS011;62088;50.240;2.696;2023-03-14T08:33:16;8.60;;;1.70;;
73776;SDS011;62088;50.240;2.696;2023-03-14T08:35:43;12.68;;;2.55;;
73776;SDS011;62088;50.240;2.696;2023-03-14T08:38:10;8.65;;;1.25;;
73776;SDS011;62088;50.240;2.696;2023-03-14T08:40:37;6.97;;;1.30;;
73776;SDS011;62088;50.240;2.696;2023-03-14T08:43:04;12.07;;;2.25;;
73776;SDS011;62088;50.240;2.696;2023-03-14T08:45:31;8.18;;;1.33;;
73776;SDS011;62088;50.240;2.696;2023-03-14T08:47:58;14.02;;;2.40;;
73776;SDS011;62088;50.240;2.696;2023-03-14T08:50:25;8.55;;;1.73;;
73776;SDS011;62088;50.240;2.696;2023-03-14T08:52:52;12.07;;;2.00;;
73776;SDS011;62088;50.240;2.696;2023-03-14T08:55:20;12.30;;;1.17;;
73776;SDS011;62088;50.240;2.696;2023-03-14T08:57:47;12.80;;;2.08;;
73776;SDS011;62088;50.240;2.696;2023-03-14T09:00:14;8.48;;;1.48;;
73776;SDS011;62088;50.240;2.696;2023-03-14T09:02:42;12.82;;;1.98;;
73776;SDS011;62088;50.240;2.696;2023-03-14T09:05:10;6.75;;;1.20;;
73776;SDS011;62088;50.240;2.696;2023-03-14T09:07:37;13.05;;;1.95;;
73776;SDS011;62088;50.240;2.696;2023-03-14T09:10:06;9.75;;;1.98;;
73776;SDS011;62088;50.240;2.696;2023-03-14T09:12:33;13.38;;;2.10;;
73776;SDS011;62088;50.240;2.696;2023-03-14T09:15:01;10.48;;;3.03;;
73776;SDS011;62088;50.240;2.696;2023-03-14T09:17:28;13.98;;;2.17;;
73776;SDS011;62088;50.240;2.696;2023-03-14T09:19:55;7.43;;;1.40;;
73776;SDS011;62088;50.240;2.696;2023-03-14T09:22:25;11.93;;;1.77;;
73776;SDS011;62088;50.240;2.696;2023-03-14T09:24:52;13.15;;;2.15;;
73776;SDS011;62088;50.240;2.696;2023-03-14T09:27:19;10.30;;;1.90;;
73776;SDS011;62088;50.240;2.696;2023-03-14T09:29:46;10.40;;;1.73;;
73776;SDS011;62088;50.240;2.696;2023-03-14T09:32:13;14.20;;;2.40;;
73776;SDS011;62088;50.240;2.696;2023-03-14T09:34:40;13.75;;;2.53;;
73776;SDS011;62088;50.240;2.696;2023-03-14T09:37:07;7.68;;;1.75;;
73776;SDS011;62088;50.240;2.696;2023-03-14T09:39:34;11.05;;;2.10;;
73776;SDS011;62088;50.240;2.696;2023-03-14T09:42:02;11.13;;;1.92;;
73776;SDS011;62088;50.240;2.696;2023-03-14T09:44:37;9.70;;;2.75;;
73776;SDS011;62088;50.240;2.696;2023-03-14T09:47:10;8.57;;;1.70;;
73776;SDS011;62088;50.240;2.696;2023-03-14T09:49:40;16.23;;;2.60;;
73776;SDS011;62088;50.240;2.696;2023-03-14T09:52:12;11.77;;;2.40;;
73776;SDS011;62088;50.240;2.696;2023-03-14T09:54:47;14.75;;;2.95;;
73776;SDS011;62088;50.240;2.696;2023-03-14T09:57:17;7.28;;;1.80;;
73776;SDS011;62088;50.240;2.696;2023-03-14T09:59:47;11.50;;;2.30;;
73776;SDS011;62088;50.240;2.696;2023-03-14T10:02:20;12.88;;;1.63;;
73776;SDS011;62088;50.240;2.696;2023-03-14T10:04:51;13.48;;;3.03;;
73776;SDS011;62088;50.240;2.696;2023-03-14T10:07:25;11.20;;;2.20;;
73776;SDS011;62088;50.240;2.696;2023-03-14T10:09:55;9.80;;;1.85;;
73776;SDS011;62088;50.240;2.696;2023-03-14T10:12:35;13.25;;;2.08;;
73776;SDS011;62088;50.240;2.696;2023-03-14T10:15:09;7.63;;;1.80;;
73776;SDS011;62088;50.240;2.696;2023-03-14T10:17:42;8.85;;;2.05;;
73776;SDS011;62088;50.240;2.696;2023-03-14T10:20:26;10.05;;;1.92;;
73776;SDS011;62088;50.240;2.696;2023-03-14T10:23:00;14.85;;;2.58;;
73776;SDS011;62088;50.240;2.696;2023-03-14T10:25:32;10.98;;;2.28;;
73776;SDS011;62088;50.240;2.696;2023-03-14T10:28:01;8.30;;;1.10;;
73776;SDS011;62088;50.240;2.696;2023-03-14T10:30:33;10.13;;;1.85;;
73776;SDS011;62088;50.240;2.696;2023-03-14T10:33:22;9.48;;;2.03;;
73776;SDS011;62088;50.240;2.696;2023-03-14T10:35:53;11.35;;;2.05;;
73776;SDS011;62088;50.240;2.696;2023-03-14T10:38:25;12.30;;;1.77;;
73776;SDS011;62088;50.240;2.696;2023-03-14T10:40:55;9.85;;;1.67;;
73776;SDS011;62088;50.240;2.696;2023-03-14T10:43:27;14.25;;;2.08;;
73776;SDS011;62088;50.240;2.696;2023-03-14T10:46:05;9.63;;;1.70;;
73776;SDS011;62088;50.240;2.696;2023-03-14T10:49:00;9.10;;;2.03;;
73776;SDS011;62088;50.240;2.696;2023-03-14T10:51:31;10.02;;;1.67;;
73776;SDS011;62088;50.240;2.696;2023-03-14T10:54:03;10.88;;;1.63;;
73776;SDS011;62088;50.240;2.696;2023-03-14T10:56:38;8.65;;;1.60;;
73776;SDS011;62088;50.240;2.696;2023-03-14T10:59:12;10.00;;;1.88;;
73776;SDS011;62088;50.240;2.696;2023-03-14T11:01:44;11.98;;;1.85;;
73776;SDS011;62088;50.240;2.696;2023-03-14T11:07:03;11.93;;;2.15;;
73776;SDS011;62088;50.240;2.696;2023-03-14T11:09:58;5.57;;;1.50;;
73776;SDS011;62088;50.240;2.696;2023-03-14T11:18:13;7.95;;;1.95;;
73776;SDS011;62088;50.240;2.696;2023-03-14T11:21:07;12.80;;;2.13;;
73776;SDS011;62088;50.240;2.696;2023-03-14T11:26:32;9.57;;;1.98;;
73776;SDS011;62088;50.240;2.696;2023-03-14T11:34:39;8.00;;;1.77;;
73776;SDS011;62088;50.240;2.696;2023-03-14T11:40:14;12.23;;;2.28;;
73776;SDS011;62088;50.240;2.696;2023-03-14T11:42:47;9.52;;;1.90;;
73776;SDS011;62088;50.240;2.696;2023-03-14T11:45:25;10.18;;;2.33;;
73776;SDS011;62088;50.240;2.696;2023-03-14T11:48:04;11.13;;;2.03;;
73776;SDS011;62088;50.240;2.696;2023-03-14T11:50:50;8.63;;;1.80;;
73776;SDS011;62088;50.240;2.696;2023-03-14T11:53:20;8.80;;;2.08;;
73776;SDS011;62088;50.240;2.696;2023-03-14T11:55:56;10.32;;;2.00;;
73776;SDS011;62088;50.240;2.696;2023-03-14T11:58:25;9.10;;;1.73;;
73776;SDS011;62088;50.240;2.696;2023-03-14T12:00:56;10.25;;;1.80;;
73776;SDS011;62088;50.240;2.696;2023-03-14T12:06:17;10.32;;;1.98;;
73776;SDS011;62088;50.240;2.696;2023-03-14T12:11:56;10.77;;;1.92;;
73776;SDS011;62088;50.240;2.696;2023-03-14T12:16:58;7.07;;;1.80;;
73776;SDS011;62088;50.240;2.696;2023-03-14T12:19:45;9.85;;;2.13;;
73776;SDS011;62088;50.240;2.696;2023-03-14T12:22:26;9.60;;;1.98;;
73776;SDS011;62088;50.240;2.696;2023-03-14T12:35:37;8.68;;;1.77;;
73776;SDS011;62088;50.240;2.696;2023-03-14T12:38:29;8.15;;;1.83;;
73776;SDS011;62088;50.240;2.696;2023-03-14T12:41:25;7.38;;;1.55;;
73776;SDS011;62088;50.240;2.696;2023-03-14T12:46:58;5.30;;;1.10;;
73776;SDS011;62088;50.240;2.696;2023-03-14T12:49:32;5.82;;;1.30;;
73776;SDS011;62088;50.240;2.696;2023-03-14T12:52:10;6.45;;;1.00;;
73776;SDS011;62088;50.240;2.696;2023-03-14T12:54:49;6.20;;;1.30;;
73776;SDS011;62088;50.240;2.696;2023-03-14T12:59:59;5.57;;;1.17;;
73776;SDS011;62088;50.240;2.696;2023-03-14T13:02:42;4.25;;;1.45;;
73776;SDS011;62088;50.240;2.696;2023-03-14T13:05:21;3.10;;;1.05;;
73776;SDS011;62088;50.240;2.696;2023-03-14T13:10:28;2.13;;;0.60;;
73776;SDS011;62088;50.240;2.696;2023-03-14T13:13:19;1.40;;;0.40;;
73776;SDS011;62088;50.240;2.696;2023-03-14T13:15:56;2.47;;;0.68;;
73776;SDS011;62088;50.240;2.696;2023-03-14T13:21:16;1.10;;;0.50;;
73776;SDS011;62088;50.240;2.696;2023-03-14T13:23:59;0.45;;;0.30;;
73776;SDS011;62088;50.240;2.696;2023-03-14T13:26:37;0.95;;;0.40;;
73776;SDS011;62088;50.240;2.696;2023-03-14T13:29:19;0.73;;;0.40;;
73776;SDS011;62088;50.240;2.696;2023-03-14T13:31:47;1.30;;;0.63;;
73776;SDS011;62088;50.240;2.696;2023-03-14T13:34:15;1.27;;;0.57;;
73776;SDS011;62088;50.240;2.696;2023-03-14T13:36:43;1.20;;;0.40;;
73776;SDS011;62088;50.240;2.696;2023-03-14T13:39:14;1.98;;;0.43;;
73776;SDS011;62088;50.240;2.696;2023-03-14T13:41:46;1.08;;;0.50;;
73776;SDS011;62088;50.240;2.696;2023-03-14T13:44:14;1.95;;;0.55;;
73776;SDS011;62088;50.240;2.696;2023-03-14T13:46:43;1.92;;;0.50;;
73776;SDS011;62088;50.240;2.696;2023-03-14T13:49:11;1.75;;;0.63;;
73776;SDS011;62088;50.240;2.696;2023-03-14T13:51:44;3.10;;;0.95;;
73776;SDS011;62088;50.240;2.696;2023-03-14T13:54:18;2.40;;;0.80;;
73776;SDS011;62088;50.240;2.696;2023-03-14T13:56:46;1.35;;;0.70;;
73776;SDS011;62088;50.240;2.696;2023-03-14T13:59:21;1.85;;;0.70;;
73776;SDS011;62088;50.240;2.696;2023-03-14T14:01:49;4.55;;;1.13;;
73776;SDS011;62088;50.240;2.696;2023-03-14T14:04:18;3.17;;;1.02;;
73776;SDS011;62088;50.240;2.696;2023-03-14T14:06:58;3.45;;;0.68;;
73776;SDS011;62088;50.240;2.696;2023-03-14T14:09:30;6.13;;;1.30;;
73776;SDS011;62088;50.240;2.696;2023-03-14T14:12:12;5.28;;;1.10;;
73776;SDS011;62088;50.240;2.696;2023-03-14T14:14:45;3.65;;;1.05;;
73776;SDS011;62088;50.240;2.696;2023-03-14T14:17:27;6.15;;;1.30;;
73776;SDS011;62088;50.240;2.696;2023-03-14T14:20:05;7.50;;;1.20;;
73776;SDS011;62088;50.240;2.696;2023-03-14T14:22:35;6.70;;;1.58;;
73776;SDS011;62088;50.240;2.696;2023-03-14T14:25:02;7.20;;;1.55;;
73776;SDS011;62088;50.240;2.696;2023-03-14T14:27:35;5.05;;;1.30;;
73776;SDS011;62088;50.240;2.696;2023-03-14T14:30:21;5.72;;;1.45;;
73776;SDS011;62088;50.240;2.696;2023-03-14T14:33:10;4.68;;;1.20;;
73776;SDS011;62088;50.240;2.696;2023-03-14T14:35:48;5.00;;;1.17;;
73776;SDS011;62088;50.240;2.696;2023-03-14T14:38:19;11.73;;;2.10;;
73776;SDS011;62088;50.240;2.696;2023-03-14T14:40:47;4.18;;;0.98;;
73776;SDS011;62088;50.240;2.696;2023-03-14T14:43:19;8.88;;;1.63;;
73776;SDS011;62088;50.240;2.696;2023-03-14T14:45:50;5.20;;;1.20;;
73776;SDS011;62088;50.240;2.696;2023-03-14T14:48:23;6.05;;;1.50;;
73776;SDS011;62088;50.240;2.696;2023-03-14T14:53:38;8.25;;;1.45;;
73776;SDS011;62088;50.240;2.696;2023-03-14T14:56:17;9.55;;;1.98;;
73776;SDS011;62088;50.240;2.696;2023-03-14T14:58:58;10.88;;;1.98;;
73776;SDS011;62088;50.240;2.696;2023-03-14T15:01:35;3.72;;;0.90;;
73776;SDS011;62088;50.240;2.696;2023-03-14T15:04:09;7.93;;;1.55;;
73776;SDS011;62088;50.240;2.696;2023-03-14T15:06:42;5.10;;;1.20;;
73776;SDS011;62088;50.240;2.696;2023-03-14T15:09:11;8.85;;;1.50;;
73776;SDS011;62088;50.240;2.696;2023-03-14T15:11:38;8.57;;;1.70;;
73776;SDS011;62088;50.240;2.696;2023-03-14T15:14:05;9.35;;;1.60;;
73776;SDS011;62088;50.240;2.696;2023-03-14T15:16:33;5.63;;;1.30;;
73776;SDS011;62088;50.240;2.696;2023-03-14T15:19:02;8.73;;;1.45;;
73776;SDS011;62088;50.240;2.696;2023-03-14T15:21:48;5.78;;;1.13;;
73776;SDS011;62088;50.240;2.696;2023-03-14T15:24:16;10.05;;;1.70;;
73776;SDS011;62088;50.240;2.696;2023-03-14T15:26:42;7.55;;;1.50;;
73776;SDS011;62088;50.240;2.696;2023-03-14T15:29:10;6.47;;;1.40;;
73776;SDS011;62088;50.240;2.696;2023-03-14T15:31:39;5.30;;;1.30;;
73776;SDS011;62088;50.240;2.696;2023-03-14T15:34:07;3.75;;;1.02;;
73776;SDS011;62088;50.240;2.696;2023-03-14T15:36:35;4.88;;;1.30;;
73776;SDS011;62088;50.240;2.696;2023-03-14T15:39:04;4.72;;;1.23;;
73776;SDS011;62088;50.240;2.696;2023-03-14T15:41:32;6.80;;;1.38;;
73776;SDS011;62088;50.240;2.696;2023-03-14T15:43:59;7.53;;;1.48;;
73776;SDS011;62088;50.240;2.696;2023-03-14T15:46:26;3.30;;;1.10;;
73776;SDS011;62088;50.240;2.696;2023-03-14T15:48:56;5.75;;;1.08;;
73776;SDS011;62088;50.240;2.696;2023-03-14T15:51:23;4.30;;;0.98;;
73776;SDS011;62088;50.240;2.696;2023-03-14T15:53:50;5.95;;;1.58;;
73776;SDS011;62088;50.240;2.696;2023-03-14T15:56:19;6.65;;;1.00;;
73776;SDS011;62088;50.240;2.696;2023-03-14T15:58:46;5.85;;;1.33;;
73776;SDS011;62088;50.240;2.696;2023-03-14T16:01:14;6.25;;;1.40;;
73776;SDS011;62088;50.240;2.696;2023-03-14T16:03:45;7.43;;;1.48;;
73776;SDS011;62088;50.240;2.696;2023-03-14T16:06:12;6.38;;;1.42;;
73776;SDS011;62088;50.240;2.696;2023-03-14T16:08:40;9.07;;;2.03;;
73776;SDS011;62088;50.240;2.696;2023-03-14T16:11:08;6.38;;;1.10;;
73776;SDS011;62088;50.240;2.696;2023-03-14T16:13:37;7.35;;;1.60;;
73776;SDS011;62088;50.240;2.696;2023-03-14T16:16:05;7.03;;;1.42;;